sensor_id;sensor_type;location;lat;lon;timestamp;temperature;humidity
75821;DHT22;64454;51.984;9.838;2023-09-19T00:00:00;18.30;1.00
75821;DHT22;64454;51.984;9.838;2023-09-19T00:02:27;18.20;1.00
75821;DHT22;64454;51.984;9.838;2023-09-19T00:04:54;18.00;1.00
75821;DHT22;64454;51.984;9.838;2023-09-19T00:07:21;18.10;1.00
75821;DHT22;64454;51.984;9.838;2023-09-19T00:09:48;18.20;1.00
75821;DHT22;64454;51.984;9.838;2023-09-19T00:12:15;18.20;1.00
75821;DHT22;64454;51.984;9.838;2023-09-19T00:14:43;18.20;1.00
75821;DHT22;64454;51.984;9.838;2023-09-19T00:17:11;18.20;1.00
75821;DHT22;64454;51.984;9.838;2023-09-19T00:19:38;18.30;1.00
75821;DHT22;64454;51.984;9.838;2023-09-19T00:22:08;18.30;1.00
75821;DHT22;64454;51.984;9.838;2023-09-19T00:24:35;18.30;1.00
75821;DHT22;64454;51.984;9.838;2023-09-19T00:27:02;18.40;1.00
75821;DHT22;64454;51.984;9.838;2023-09-19T00:29:31;18.20;1.00
75821;DHT22;64454;51.984;9.838;2023-09-19T00:31:58;18.10;1.00
75821;DHT22;64454;51.984;9.838;2023-09-19T00:34:27;18.10;1.00
75821;DHT22;64454;51.984;9.838;2023-09-19T00:36:55;18.10;1.00
75821;DHT22;64454;51.984;9.838;2023-09-19T00:39:22;18.20;1.00
75821;DHT22;64454;51.984;9.838;2023-09-19T00:41:51;18.20;1.00
75821;DHT22;64454;51.984;9.838;2023-09-19T00:44:19;18.30;1.00
75821;DHT22;64454;51.984;9.838;2023-09-19T00:46:48;18.40;1.00
75821;DHT22;64454;51.984;9.838;2023-09-19T00:49:18;18.40;1.00
75821;DHT22;64454;51.984;9.838;2023-09-19T00:51:49;18.50;1.00
75821;DHT22;64454;51.984;9.838;2023-09-19T00:54:18;18.40;1.00
75821;DHT22;64454;51.984;9.838;2023-09-19T00:56:47;18.40;1.00
75821;DHT22;64454;51.984;9.838;2023-09-19T00:59:17;18.30;1.00
75821;DHT22;64454;51.984;9.838;2023-09-19T01:01:47;18.40;1.00
75821;DHT22;64454;51.984;9.838;2023-09-19T01:04:20;18.30;1.00
75821;DHT22;64454;51.984;9.838;2023-09-19T01:06:49;18.30;1.00
75821;DHT22;64454;51.984;9.838;2023-09-19T01:09:20;18.30;1.00
75821;DHT22;64454;51.984;9.838;2023-09-19T01:11:50;18.40;1.00
75821;DHT22;64454;51.984;9.838;2023-09-19T01:14:27;18.40;1.00
75821;DHT22;64454;51.984;9.838;2023-09-19T01:17:03;18.50;1.00
75821;DHT22;64454;51.984;9.838;2023-09-19T01:20:15;18.50;1.00
75821;DHT22;64454;51.984;9.838;2023-09-19T01:23:13;18.60;1.00
75821;DHT22;64454;51.984;9.838;2023-09-19T01:26:07;18.50;1.00
75821;DHT22;64454;51.984;9.838;2023-09-19T01:28:53;18.50;1.00
75821;DHT22;64454;51.984;9.838;2023-09-19T01:31:31;18.50;1.00
75821;DHT22;64454;51.984;9.838;2023-09-19T01:34:02;18.60;1.00
75821;DHT22;64454;51.984;9.838;2023-09-19T01:36:31;18.60;1.00
75821;DHT22;64454;51.984;9.838;2023-09-19T01:39:03;18.50;1.00
75821;DHT22;64454;51.984;9.838;2023-09-19T01:41:45;18.60;1.00
75821;DHT22;64454;51.984;9.838;2023-09-19T01:44:24;18.50;1.00
75821;DHT22;64454;51.984;9.838;2023-09-19T01:46:58;18.50;1.00
75821;DHT22;64454;51.984;9.838;2023-09-19T01:49:37;18.60;1.00
75821;DHT22;64454;51.984;9.838;2023-09-19T01:52:12;18.70;1.00
75821;DHT22;64454;51.984;9.838;2023-09-19T01:54:46;18.80;1.00
75821;DHT22;64454;51.984;9.838;2023-09-19T01:57:22;18.80;1.00
75821;DHT22;64454;51.984;9.838;2023-09-19T02:00:00;18.80;1.00
75821;DHT22;64454;51.984;9.838;2023-09-19T02:02:34;18.80;1.00
75821;DHT22;64454;51.984;9.838;2023-09-19T02:05:01;18.70;1.00
75821;DHT22;64454;51.984;9.838;2023-09-19T02:07:30;18.80;1.00
75821;DHT22;64454;51.984;9.838;2023-09-19T02:09:57;18.70;1.00
75821;DHT22;64454;51.984;9.838;2023-09-19T02:12:25;18.60;1.00
75821;DHT22;64454;51.984;9.838;2023-09-19T02:14:52;18.60;1.00
75821;DHT22;64454;51.984;9.838;2023-09-19T02:17:19;18.50;1.00
75821;DHT22;64454;51.984;9.838;2023-09-19T02:19:47;18.40;1.00
75821;DHT22;64454;51.984;9.838;2023-09-19T02:22:14;18.40;1.00
75821;DHT22;64454;51.984;9.838;2023-09-19T02:24:41;18.30;1.00
75821;DHT22;64454;51.984;9.838;2023-09-19T02:27:08;18.30;1.00
75821;DHT22;64454;51.984;9.838;2023-09-19T02:29:38;18.20;1.00
75821;DHT22;64454;51.984;9.838;2023-09-19T02:32:05;18.20;1.00
75821;DHT22;64454;51.984;9.838;2023-09-19T02:34:32;18.20;1.00
75821;DHT22;64454;51.984;9.838;2023-09-19T02:37:03;18.20;1.00
75821;DHT22;64454;51.984;9.838;2023-09-19T02:39:31;18.30;1.00
75821;DHT22;64454;51.984;9.838;2023-09-19T02:41:58;18.30;1.00
75821;DHT22;64454;51.984;9.838;2023-09-19T02:44:25;18.30;1.00
75821;DHT22;64454;51.984;9.838;2023-09-19T02:46:53;18.40;1.00
75821;DHT22;64454;51.984;9.838;2023-09-19T02:49:20;18.30;1.00
75821;DHT22;64454;51.984;9.838;2023-09-19T02:51:47;18.40;1.00
75821;DHT22;64454;51.984;9.838;2023-09-19T02:54:17;18.40;1.00
75821;DHT22;64454;51.984;9.838;2023-09-19T02:56:47;18.50;1.00
75821;DHT22;64454;51.984;9.838;2023-09-19T02:59:15;18.30;1.00
75821;DHT22;64454;51.984;9.838;2023-09-19T03:01:43;18.30;1.00
75821;DHT22;64454;51.984;9.838;2023-09-19T03:04:14;18.30;1.00
75821;DHT22;64454;51.984;9.838;2023-09-19T03:06:45;18.30;1.00
75821;DHT22;64454;51.984;9.838;2023-09-19T03:09:17;18.30;1.00
75821;DHT22;64454;51.984;9.838;2023-09-19T03:11:46;18.40;1.00
75821;DHT22;64454;51.984;9.838;2023-09-19T03:14:13;18.40;1.00
75821;DHT22;64454;51.984;9.838;2023-09-19T03:16:42;18.30;1.00
75821;DHT22;64454;51.984;9.838;2023-09-19T03:19:10;18.40;1.00
75821;DHT22;64454;51.984;9.838;2023-09-19T03:21:37;18.40;1.00
75821;DHT22;64454;51.984;9.838;2023-09-19T03:24:05;18.50;1.00
75821;DHT22;64454;51.984;9.838;2023-09-19T03:26:34;18.60;1.00
75821;DHT22;64454;51.984;9.838;2023-09-19T03:29:03;18.60;1.00
75821;DHT22;64454;51.984;9.838;2023-09-19T03:31:33;18.60;1.00
75821;DHT22;64454;51.984;9.838;2023-09-19T03:34:02;18.50;1.00
75821;DHT22;64454;51.984;9.838;2023-09-19T03:36:30;18.50;1.00
75821;DHT22;64454;51.984;9.838;2023-09-19T03:38:57;18.40;1.00
75821;DHT22;64454;51.984;9.838;2023-09-19T03:41:24;18.30;1.00
75821;DHT22;64454;51.984;9.838;2023-09-19T03:43:52;18.30;1.00
75821;DHT22;64454;51.984;9.838;2023-09-19T03:46:19;18.30;1.00
75821;DHT22;64454;51.984;9.838;2023-09-19T03:48:46;18.10;1.00
75821;DHT22;64454;51.984;9.838;2023-09-19T03:51:13;17.90;1.00
75821;DHT22;64454;51.984;9.838;2023-09-19T03:53:40;17.80;1.00
75821;DHT22;64454;51.984;9.838;2023-09-19T03:56:06;17.90;1.00
75821;DHT22;64454;51.984;9.838;2023-09-19T03:58:34;17.80;1.00
75821;DHT22;64454;51.984;9.838;2023-09-19T04:01:06;17.80;1.00
75821;DHT22;64454;51.984;9.838;2023-09-19T04:03:33;17.90;1.00
75821;DHT22;64454;51.984;9.838;2023-09-19T04:06:11;17.90;1.00
75821;DHT22;64454;51.984;9.838;2023-09-19T04:08:38;17.90;1.00
75821;DHT22;64454;51.984;9.838;2023-09-19T04:11:05;17.90;1.00
75821;DHT22;64454;51.984;9.838;2023-09-19T04:13:32;18.00;1.00
75821;DHT22;64454;51.984;9.838;2023-09-19T04:15:59;18.00;1.00
75821;DHT22;64454;51.984;9.838;2023-09-19T04:18:27;17.90;1.00
75821;DHT22;64454;51.984;9.838;2023-09-19T04:20:56;17.90;1.00
75821;DHT22;64454;51.984;9.838;2023-09-19T04:23:23;17.80;1.00
75821;DHT22;64454;51.984;9.838;2023-09-19T04:25:50;17.60;1.00
75821;DHT22;64454;51.984;9.838;2023-09-19T04:28:17;17.60;1.00
75821;DHT22;64454;51.984;9.838;2023-09-19T04:30:44;17.60;1.00
75821;DHT22;64454;51.984;9.838;2023-09-19T04:33:11;17.70;1.00
75821;DHT22;64454;51.984;9.838;2023-09-19T04:35:41;17.80;1.00
75821;DHT22;64454;51.984;9.838;2023-09-19T04:38:09;17.70;1.00
75821;DHT22;64454;51.984;9.838;2023-09-19T04:40:37;17.60;1.00
75821;DHT22;64454;51.984;9.838;2023-09-19T04:43:05;17.50;1.00
75821;DHT22;64454;51.984;9.838;2023-09-19T04:45:33;17.50;1.00
75821;DHT22;64454;51.984;9.838;2023-09-19T04:48:00;17.60;1.00
75821;DHT22;64454;51.984;9.838;2023-09-19T04:50:28;17.60;1.00
75821;DHT22;64454;51.984;9.838;2023-09-19T04:52:56;17.60;1.00
75821;DHT22;64454;51.984;9.838;2023-09-19T04:55:23;17.70;1.00
75821;DHT22;64454;51.984;9.838;2023-09-19T04:57:50;17.70;1.00
75821;DHT22;64454;51.984;9.838;2023-09-19T05:00:19;17.60;1.00
75821;DHT22;64454;51.984;9.838;2023-09-19T05:02:49;17.60;1.00
75821;DHT22;64454;51.984;9.838;2023-09-19T05:05:16;17.50;1.00
75821;DHT22;64454;51.984;9.838;2023-09-19T05:07:44;17.70;1.00
75821;DHT22;64454;51.984;9.838;2023-09-19T05:10:14;17.70;1.00
75821;DHT22;64454;51.984;9.838;2023-09-19T05:12:41;17.70;1.00
75821;DHT22;64454;51.984;9.838;2023-09-19T05:15:10;17.70;1.00
75821;DHT22;64454;51.984;9.838;2023-09-19T05:17:37;17.70;1.00
75821;DHT22;64454;51.984;9.838;2023-09-19T05:20:06;17.60;1.00
75821;DHT22;64454;51.984;9.838;2023-09-19T05:22:46;17.70;1.00
75821;DHT22;64454;51.984;9.838;2023-09-19T05:25:14;17.70;1.00
75821;DHT22;64454;51.984;9.838;2023-09-19T05:27:43;17.60;1.00
75821;DHT22;64454;51.984;9.838;2023-09-19T05:30:11;17.60;1.00
75821;DHT22;64454;51.984;9.838;2023-09-19T05:32:40;17.50;1.00
75821;DHT22;64454;51.984;9.838;2023-09-19T05:35:07;17.50;1.00
75821;DHT22;64454;51.984;9.838;2023-09-19T05:37:35;17.40;1.00
75821;DHT22;64454;51.984;9.838;2023-09-19T05:40:02;17.30;1.00
75821;DHT22;64454;51.984;9.838;2023-09-19T05:42:36;17.30;1.00
75821;DHT22;64454;51.984;9.838;2023-09-19T05:45:05;17.40;1.00
75821;DHT22;64454;51.984;9.838;2023-09-19T05:47:33;17.50;1.00
75821;DHT22;64454;51.984;9.838;2023-09-19T05:50:00;17.60;1.00
75821;DHT22;64454;51.984;9.838;2023-09-19T05:52:28;17.50;1.00
75821;DHT22;64454;51.984;9.838;2023-09-19T05:54:55;17.60;1.00
75821;DHT22;64454;51.984;9.838;2023-09-19T05:57:22;17.60;1.00
75821;DHT22;64454;51.984;9.838;2023-09-19T05:59:51;17.70;1.00
75821;DHT22;64454;51.984;9.838;2023-09-19T06:02:18;17.70;1.00
75821;DHT22;64454;51.984;9.838;2023-09-19T06:04:45;17.70;1.00
75821;DHT22;64454;51.984;9.838;2023-09-19T06:07:12;17.80;1.00
75821;DHT22;64454;51.984;9.838;2023-09-19T06:09:40;17.70;1.00
75821;DHT22;64454;51.984;9.838;2023-09-19T06:12:07;17.70;1.00
75821;DHT22;64454;51.984;9.838;2023-09-19T06:14:35;17.70;1.00
75821;DHT22;64454;51.984;9.838;2023-09-19T06:17:03;18.00;1.00
75821;DHT22;64454;51.984;9.838;2023-09-19T06:19:30;18.20;1.00
75821;DHT22;64454;51.984;9.838;2023-09-19T06:22:01;18.30;1.00
75821;DHT22;64454;51.984;9.838;2023-09-19T06:24:28;18.20;1.00
75821;DHT22;64454;51.984;9.838;2023-09-19T06:26:55;18.20;1.00
75821;DHT22;64454;51.984;9.838;2023-09-19T06:29:21;18.10;1.00
75821;DHT22;64454;51.984;9.838;2023-09-19T06:31:50;18.10;1.00
75821;DHT22;64454;51.984;9.838;2023-09-19T06:34:20;18.20;1.00
75821;DHT22;64454;51.984;9.838;2023-09-19T06:36:48;18.10;1.00
75821;DHT22;64454;51.984;9.838;2023-09-19T06:39:16;18.20;1.00
75821;DHT22;64454;51.984;9.838;2023-09-19T06:41:49;18.20;1.00
75821;DHT22;64454;51.984;9.838;2023-09-19T06:44:17;18.10;1.00
75821;DHT22;64454;51.984;9.838;2023-09-19T06:46:46;18.10;1.00
75821;DHT22;64454;51.984;9.838;2023-09-19T06:49:16;18.10;1.00
75821;DHT22;64454;51.984;9.838;2023-09-19T06:51:47;17.80;1.00
75821;DHT22;64454;51.984;9.838;2023-09-19T06:54:16;17.90;1.00
75821;DHT22;64454;51.984;9.838;2023-09-19T06:56:45;17.80;1.00
75821;DHT22;64454;51.984;9.838;2023-09-19T06:59:12;17.80;1.00
75821;DHT22;64454;51.984;9.838;2023-09-19T07:01:40;17.90;1.00
75821;DHT22;64454;51.984;9.838;2023-09-19T07:04:10;17.90;1.00
75821;DHT22;64454;51.984;9.838;2023-09-19T07:06:39;17.90;1.00
75821;DHT22;64454;51.984;9.838;2023-09-19T07:09:06;18.10;1.00
75821;DHT22;64454;51.984;9.838;2023-09-19T07:11:35;18.20;1.00
75821;DHT22;64454;51.984;9.838;2023-09-19T07:14:02;18.20;1.00
75821;DHT22;64454;51.984;9.838;2023-09-19T07:16:31;18.40;1.00
75821;DHT22;64454;51.984;9.838;2023-09-19T07:18:58;18.50;1.00
75821;DHT22;64454;51.984;9.838;2023-09-19T07:21:24;18.70;1.00
75821;DHT22;64454;51.984;9.838;2023-09-19T07:23:53;18.60;1.00
75821;DHT22;64454;51.984;9.838;2023-09-19T07:26:20;18.80;1.00
75821;DHT22;64454;51.984;9.838;2023-09-19T07:28:46;18.90;1.00
75821;DHT22;64454;51.984;9.838;2023-09-19T07:31:13;18.90;1.00
75821;DHT22;64454;51.984;9.838;2023-09-19T07:33:40;19.00;1.00
75821;DHT22;64454;51.984;9.838;2023-09-19T07:36:10;19.10;1.00
75821;DHT22;64454;51.984;9.838;2023-09-19T07:38:39;18.90;1.00
75821;DHT22;64454;51.984;9.838;2023-09-19T07:41:08;18.90;1.00
75821;DHT22;64454;51.984;9.838;2023-09-19T07:43:35;19.00;1.00
75821;DHT22;64454;51.984;9.838;2023-09-19T07:46:04;19.20;1.00
75821;DHT22;64454;51.984;9.838;2023-09-19T07:48:34;19.20;1.00
75821;DHT22;64454;51.984;9.838;2023-09-19T07:51:03;19.10;1.00
75821;DHT22;64454;51.984;9.838;2023-09-19T07:53:31;19.00;1.00
75821;DHT22;64454;51.984;9.838;2023-09-19T07:56:03;18.90;1.00
75821;DHT22;64454;51.984;9.838;2023-09-19T07:58:33;18.80;1.00
75821;DHT22;64454;51.984;9.838;2023-09-19T08:01:04;18.90;1.00
75821;DHT22;64454;51.984;9.838;2023-09-19T08:03:32;19.00;1.00
75821;DHT22;64454;51.984;9.838;2023-09-19T08:05:59;18.90;1.00
75821;DHT22;64454;51.984;9.838;2023-09-19T08:08:26;18.80;1.00
75821;DHT22;64454;51.984;9.838;2023-09-19T08:10:53;18.70;1.00
75821;DHT22;64454;51.984;9.838;2023-09-19T08:13:21;19.00;1.00
75821;DHT22;64454;51.984;9.838;2023-09-19T08:15:50;19.20;1.00
75821;DHT22;64454;51.984;9.838;2023-09-19T08:18:18;19.60;1.00
75821;DHT22;64454;51.984;9.838;2023-09-19T08:20:49;20.10;1.00
75821;DHT22;64454;51.984;9.838;2023-09-19T08:23:17;20.60;1.00
75821;DHT22;64454;51.984;9.838;2023-09-19T08:25:45;20.90;1.00
75821;DHT22;64454;51.984;9.838;2023-09-19T08:28:12;20.90;1.00
75821;DHT22;64454;51.984;9.838;2023-09-19T08:30:44;21.00;1.00
75821;DHT22;64454;51.984;9.838;2023-09-19T08:33:13;21.40;1.00
75821;DHT22;64454;51.984;9.838;2023-09-19T08:35:41;22.40;1.00
75821;DHT22;64454;51.984;9.838;2023-09-19T08:38:09;23.60;1.00
75821;DHT22;64454;51.984;9.838;2023-09-19T08:40:37;24.20;1.00
75821;DHT22;64454;51.984;9.838;2023-09-19T08:43:06;24.60;1.00
75821;DHT22;64454;51.984;9.838;2023-09-19T08:45:33;24.70;1.00
75821;DHT22;64454;51.984;9.838;2023-09-19T08:48:19;25.20;1.00
75821;DHT22;64454;51.984;9.838;2023-09-19T08:50:52;26.00;1.00
75821;DHT22;64454;51.984;9.838;2023-09-19T08:53:29;26.10;1.00
75821;DHT22;64454;51.984;9.838;2023-09-19T08:56:03;25.90;1.00
75821;DHT22;64454;51.984;9.838;2023-09-19T08:58:42;25.50;1.00
75821;DHT22;64454;51.984;9.838;2023-09-19T09:01:15;25.00;1.00
75821;DHT22;64454;51.984;9.838;2023-09-19T09:03:44;25.60;1.00
75821;DHT22;64454;51.984;9.838;2023-09-19T09:06:14;25.70;1.00
75821;DHT22;64454;51.984;9.838;2023-09-19T09:08:43;25.90;1.00
75821;DHT22;64454;51.984;9.838;2023-09-19T09:11:11;25.50;1.00
75821;DHT22;64454;51.984;9.838;2023-09-19T09:13:38;25.30;1.00
75821;DHT22;64454;51.984;9.838;2023-09-19T09:16:06;24.90;1.00
75821;DHT22;64454;51.984;9.838;2023-09-19T09:18:33;23.80;1.00
75821;DHT22;64454;51.984;9.838;2023-09-19T09:21:02;23.50;1.00
75821;DHT22;64454;51.984;9.838;2023-09-19T09:23:32;22.70;1.00
75821;DHT22;64454;51.984;9.838;2023-09-19T09:26:00;22.70;1.00
75821;DHT22;64454;51.984;9.838;2023-09-19T09:28:32;22.90;1.00
75821;DHT22;64454;51.984;9.838;2023-09-19T09:31:01;22.90;1.00
75821;DHT22;64454;51.984;9.838;2023-09-19T09:33:33;23.00;1.00
75821;DHT22;64454;51.984;9.838;2023-09-19T09:36:03;23.20;1.00
75821;DHT22;64454;51.984;9.838;2023-09-19T09:38:43;23.00;1.00
75821;DHT22;64454;51.984;9.838;2023-09-19T09:41:11;23.20;1.00
75821;DHT22;64454;51.984;9.838;2023-09-19T09:43:41;23.30;1.00
75821;DHT22;64454;51.984;9.838;2023-09-19T09:46:13;23.40;1.00
75821;DHT22;64454;51.984;9.838;2023-09-19T09:49:10;23.00;1.00
75821;DHT22;64454;51.984;9.838;2023-09-19T09:51:44;22.80;1.00
75821;DHT22;64454;51.984;9.838;2023-09-19T09:54:16;23.00;1.00
75821;DHT22;64454;51.984;9.838;2023-09-19T09:56:53;23.40;1.00
75821;DHT22;64454;51.984;9.838;2023-09-19T09:59:46;23.60;1.00
75821;DHT22;64454;51.984;9.838;2023-09-19T10:02:15;23.70;1.00
75821;DHT22;64454;51.984;9.838;2023-09-19T10:04:49;23.90;1.00
75821;DHT22;64454;51.984;9.838;2023-09-19T10:07:36;24.30;1.00
75821;DHT22;64454;51.984;9.838;2023-09-19T10:10:07;24.50;1.00
75821;DHT22;64454;51.984;9.838;2023-09-19T10:12:45;24.20;1.00
75821;DHT22;64454;51.984;9.838;2023-09-19T10:15:15;24.10;1.00
75821;DHT22;64454;51.984;9.838;2023-09-19T10:17:46;24.00;1.00
75821;DHT22;64454;51.984;9.838;2023-09-19T10:20:15;24.60;1.00
75821;DHT22;64454;51.984;9.838;2023-09-19T10:23:08;25.40;1.00
75821;DHT22;64454;51.984;9.838;2023-09-19T10:25:39;26.20;1.00
75821;DHT22;64454;51.984;9.838;2023-09-19T10:28:08;26.30;1.00
75821;DHT22;64454;51.984;9.838;2023-09-19T10:30:37;26.40;1.00
75821;DHT22;64454;51.984;9.838;2023-09-19T10:33:10;26.10;1.00
75821;DHT22;64454;51.984;9.838;2023-09-19T10:35:39;25.60;1.00
75821;DHT22;64454;51.984;9.838;2023-09-19T10:38:11;26.20;1.00
75821;DHT22;64454;51.984;9.838;2023-09-19T10:40:40;25.90;1.00
75821;DHT22;64454;51.984;9.838;2023-09-19T10:43:12;25.30;1.00
75821;DHT22;64454;51.984;9.838;2023-09-19T10:45:45;25.20;1.00
75821;DHT22;64454;51.984;9.838;2023-09-19T10:48:15;25.00;1.00
75821;DHT22;64454;51.984;9.838;2023-09-19T10:50:48;24.60;1.00
75821;DHT22;64454;51.984;9.838;2023-09-19T10:53:22;24.80;1.00
75821;DHT22;64454;51.984;9.838;2023-09-19T10:55:52;24.90;1.00
75821;DHT22;64454;51.984;9.838;2023-09-19T10:58:27;25.40;1.00
75821;DHT22;64454;51.984;9.838;2023-09-19T11:00:56;26.30;1.00
75821;DHT22;64454;51.984;9.838;2023-09-19T11:03:31;26.90;1.00
75821;DHT22;64454;51.984;9.838;2023-09-19T11:06:11;27.50;1.00
75821;DHT22;64454;51.984;9.838;2023-09-19T11:08:57;26.70;1.00
75821;DHT22;64454;51.984;9.838;2023-09-19T11:11:49;26.30;1.00
75821;DHT22;64454;51.984;9.838;2023-09-19T11:14:42;25.30;1.00
75821;DHT22;64454;51.984;9.838;2023-09-19T11:17:30;25.30;1.00
75821;DHT22;64454;51.984;9.838;2023-09-19T11:20:22;25.60;1.00
75821;DHT22;64454;51.984;9.838;2023-09-19T11:23:28;25.30;1.00
75821;DHT22;64454;51.984;9.838;2023-09-19T11:25:57;25.20;1.00
75821;DHT22;64454;51.984;9.838;2023-09-19T11:28:31;25.00;1.00
75821;DHT22;64454;51.984;9.838;2023-09-19T11:30:58;24.90;1.00
75821;DHT22;64454;51.984;9.838;2023-09-19T11:33:47;25.50;1.00
75821;DHT22;64454;51.984;9.838;2023-09-19T11:36:16;25.90;1.00
75821;DHT22;64454;51.984;9.838;2023-09-19T11:39:00;26.60;1.00
75821;DHT22;64454;51.984;9.838;2023-09-19T11:41:37;27.30;1.00
75821;DHT22;64454;51.984;9.838;2023-09-19T11:44:33;27.60;1.00
75821;DHT22;64454;51.984;9.838;2023-09-19T11:47:06;27.00;1.00
75821;DHT22;64454;51.984;9.838;2023-09-19T11:49:40;26.80;1.00
75821;DHT22;64454;51.984;9.838;2023-09-19T11:52:08;26.80;1.00
75821;DHT22;64454;51.984;9.838;2023-09-19T11:54:36;26.30;1.00
75821;DHT22;64454;51.984;9.838;2023-09-19T11:57:07;26.40;1.00
75821;DHT22;64454;51.984;9.838;2023-09-19T11:59:39;26.50;1.00
75821;DHT22;64454;51.984;9.838;2023-09-19T12:02:07;26.60;1.00
75821;DHT22;64454;51.984;9.838;2023-09-19T12:04:37;26.90;1.00
75821;DHT22;64454;51.984;9.838;2023-09-19T12:07:10;26.50;1.00
75821;DHT22;64454;51.984;9.838;2023-09-19T12:09:41;27.40;1.00
75821;DHT22;64454;51.984;9.838;2023-09-19T12:12:10;28.80;1.00
75821;DHT22;64454;51.984;9.838;2023-09-19T12:14:39;28.90;1.00
75821;DHT22;64454;51.984;9.838;2023-09-19T12:17:08;28.90;1.00
75821;DHT22;64454;51.984;9.838;2023-09-19T12:19:35;28.50;1.00
75821;DHT22;64454;51.984;9.838;2023-09-19T12:22:03;27.20;1.00
75821;DHT22;64454;51.984;9.838;2023-09-19T12:24:31;26.20;1.00
75821;DHT22;64454;51.984;9.838;2023-09-19T12:27:01;26.10;1.00
75821;DHT22;64454;51.984;9.838;2023-09-19T12:29:31;27.20;1.00
75821;DHT22;64454;51.984;9.838;2023-09-19T12:32:08;26.60;1.00
75821;DHT22;64454;51.984;9.838;2023-09-19T12:34:35;25.90;1.00
75821;DHT22;64454;51.984;9.838;2023-09-19T12:37:10;26.30;1.00
75821;DHT22;64454;51.984;9.838;2023-09-19T12:39:39;26.10;1.00
75821;DHT22;64454;51.984;9.838;2023-09-19T12:42:09;24.80;1.00
75821;DHT22;64454;51.984;9.838;2023-09-19T12:44:41;23.70;1.00
75821;DHT22;64454;51.984;9.838;2023-09-19T12:47:11;23.00;1.00
75821;DHT22;64454;51.984;9.838;2023-09-19T12:50:05;22.70;1.00
75821;DHT22;64454;51.984;9.838;2023-09-19T12:52:43;23.00;1.00
75821;DHT22;64454;51.984;9.838;2023-09-19T12:55:21;23.40;1.00
75821;DHT22;64454;51.984;9.838;2023-09-19T12:57:57;23.20;1.00
75821;DHT22;64454;51.984;9.838;2023-09-19T13:00:35;23.10;1.00
75821;DHT22;64454;51.984;9.838;2023-09-19T13:03:18;23.00;1.00
75821;DHT22;64454;51.984;9.838;2023-09-19T13:05:52;22.70;1.00
75821;DHT22;64454;51.984;9.838;2023-09-19T13:08:24;22.40;1.00
75821;DHT22;64454;51.984;9.838;2023-09-19T13:11:09;22.10;1.00
75821;DHT22;64454;51.984;9.838;2023-09-19T13:13:43;21.80;1.00
75821;DHT22;64454;51.984;9.838;2023-09-19T13:16:13;21.60;1.00
75821;DHT22;64454;51.984;9.838;2023-09-19T13:18:46;21.50;1.00
75821;DHT22;64454;51.984;9.838;2023-09-19T13:21:17;21.50;1.00
75821;DHT22;64454;51.984;9.838;2023-09-19T13:23:56;21.40;1.00
75821;DHT22;64454;51.984;9.838;2023-09-19T13:26:46;21.40;1.00
75821;DHT22;64454;51.984;9.838;2023-09-19T13:29:13;21.70;1.00
75821;DHT22;64454;51.984;9.838;2023-09-19T13:31:45;21.60;1.00
75821;DHT22;64454;51.984;9.838;2023-09-19T13:34:13;21.70;1.00
75821;DHT22;64454;51.984;9.838;2023-09-19T13:36:41;21.50;1.00
75821;DHT22;64454;51.984;9.838;2023-09-19T13:39:10;21.90;1.00
75821;DHT22;64454;51.984;9.838;2023-09-19T13:41:38;22.40;1.00
75821;DHT22;64454;51.984;9.838;2023-09-19T13:44:05;22.50;1.00
75821;DHT22;64454;51.984;9.838;2023-09-19T13:46:33;22.50;1.00
75821;DHT22;64454;51.984;9.838;2023-09-19T13:49:01;22.50;1.00
75821;DHT22;64454;51.984;9.838;2023-09-19T13:51:29;22.50;1.00
75821;DHT22;64454;51.984;9.838;2023-09-19T13:53:57;22.70;1.00
75821;DHT22;64454;51.984;9.838;2023-09-19T13:56:26;24.00;1.00
75821;DHT22;64454;51.984;9.838;2023-09-19T13:58:55;25.20;1.00
75821;DHT22;64454;51.984;9.838;2023-09-19T14:01:22;26.30;1.00
75821;DHT22;64454;51.984;9.838;2023-09-19T14:03:49;27.40;1.00
75821;DHT22;64454;51.984;9.838;2023-09-19T14:06:17;28.10;1.00
75821;DHT22;64454;51.984;9.838;2023-09-19T14:08:44;28.00;1.00
75821;DHT22;64454;51.984;9.838;2023-09-19T14:11:13;27.90;1.00
75821;DHT22;64454;51.984;9.838;2023-09-19T14:13:43;28.30;1.00
75821;DHT22;64454;51.984;9.838;2023-09-19T14:16:12;27.00;1.00
75821;DHT22;64454;51.984;9.838;2023-09-19T14:18:39;25.90;1.00
75821;DHT22;64454;51.984;9.838;2023-09-19T14:21:07;26.00;1.00
75821;DHT22;64454;51.984;9.838;2023-09-19T14:23:36;25.70;1.00
75821;DHT22;64454;51.984;9.838;2023-09-19T14:26:04;25.10;1.00
75821;DHT22;64454;51.984;9.838;2023-09-19T14:28:31;24.70;1.00
75821;DHT22;64454;51.984;9.838;2023-09-19T14:31:05;24.30;1.00
75821;DHT22;64454;51.984;9.838;2023-09-19T14:33:33;24.10;1.00
75821;DHT22;64454;51.984;9.838;2023-09-19T14:36:03;23.60;1.00
75821;DHT22;64454;51.984;9.838;2023-09-19T14:38:32;23.70;1.00
75821;DHT22;64454;51.984;9.838;2023-09-19T14:41:00;23.60;1.00
75821;DHT22;64454;51.984;9.838;2023-09-19T14:43:28;23.40;1.00
75821;DHT22;64454;51.984;9.838;2023-09-19T14:45:55;23.60;1.00
75821;DHT22;64454;51.984;9.838;2023-09-19T14:48:24;23.60;1.00
75821;DHT22;64454;51.984;9.838;2023-09-19T14:50:52;23.20;1.00
75821;DHT22;64454;51.984;9.838;2023-09-19T14:53:20;24.30;1.00
75821;DHT22;64454;51.984;9.838;2023-09-19T14:55:47;25.10;1.00
75821;DHT22;64454;51.984;9.838;2023-09-19T14:58:17;24.40;1.00
75821;DHT22;64454;51.984;9.838;2023-09-19T15:00:45;24.80;1.00
75821;DHT22;64454;51.984;9.838;2023-09-19T15:03:11;24.90;1.00
75821;DHT22;64454;51.984;9.838;2023-09-19T15:05:40;24.50;1.00
75821;DHT22;64454;51.984;9.838;2023-09-19T15:08:07;24.70;1.00
75821;DHT22;64454;51.984;9.838;2023-09-19T15:10:34;25.50;1.00
75821;DHT22;64454;51.984;9.838;2023-09-19T15:13:01;26.30;1.00
75821;DHT22;64454;51.984;9.838;2023-09-19T15:19:09;26.90;1.00
75821;DHT22;64454;51.984;9.838;2023-09-19T15:21:37;26.70;1.00
75821;DHT22;64454;51.984;9.838;2023-09-19T15:24:05;26.10;1.00
75821;DHT22;64454;51.984;9.838;2023-09-19T15:26:35;25.70;1.00
75821;DHT22;64454;51.984;9.838;2023-09-19T15:29:04;25.30;1.00
75821;DHT22;64454;51.984;9.838;2023-09-19T15:31:32;24.40;1.00
75821;DHT22;64454;51.984;9.838;2023-09-19T15:34:01;23.60;1.00
75821;DHT22;64454;51.984;9.838;2023-09-19T15:36:29;23.10;1.00
75821;DHT22;64454;51.984;9.838;2023-09-19T15:39:01;22.80;1.00
75821;DHT22;64454;51.984;9.838;2023-09-19T15:41:33;22.60;1.00
75821;DHT22;64454;51.984;9.838;2023-09-19T15:44:03;22.20;1.00
75821;DHT22;64454;51.984;9.838;2023-09-19T15:46:32;22.00;1.00
75821;DHT22;64454;51.984;9.838;2023-09-19T15:49:01;21.80;1.00
75821;DHT22;64454;51.984;9.838;2023-09-19T15:51:28;21.60;1.00
75821;DHT22;64454;51.984;9.838;2023-09-19T15:53:56;21.50;1.00
75821;DHT22;64454;51.984;9.838;2023-09-19T15:56:26;21.40;1.00
75821;DHT22;64454;51.984;9.838;2023-09-19T15:58:55;21.40;1.00
75821;DHT22;64454;51.984;9.838;2023-09-19T16:01:23;21.30;1.00
75821;DHT22;64454;51.984;9.838;2023-09-19T16:03:52;21.10;1.00
75821;DHT22;64454;51.984;9.838;2023-09-19T16:06:21;21.20;1.00
75821;DHT22;64454;51.984;9.838;2023-09-19T16:08:51;21.20;1.00